Time;durP1;ratioP1;P1;durP2;ratioP2;P2;SDS_P1;SDS_P2;PMS_P1;PMS_P2;Temp;Humidity;BMP_temperature;BMP_pressure;BME280_temperature;BME280_humidity;BME280_pressure;Samples;Min_cycle;Max_cycle;Signal;HPM_P1;HPM_P2
2022/10/19 00:01:38;;;;;;;;;;;12.80;99.90;;;;;;5024693;28;20020;-61
2022/10/19 00:04:04;;;;;;;;;;;12.70;99.90;;;;;;5027285;28;19909;-61
2022/10/19 00:06:33;;;;;;;;;;;12.60;99.90;;;;;;5023471;28;19992;-61
2022/10/19 00:09:00;;;;;;;;;;;12.60;99.90;;;;;;5019325;28;19996;-61
2022/10/19 00:11:27;;;;;;;;;;;12.60;99.90;;;;;;5022739;28;19913;-61
2022/10/19 00:13:53;;;;;;;;;;;12.50;99.90;;;;;;5017807;28;19932;-61
2022/10/19 00:16:19;;;;;;;;;;;12.50;99.90;;;;;;5013052;28;19967;-61
2022/10/19 00:18:45;;;;;;;;;;;12.50;99.90;;;;;;5027032;28;19913;-61
2022/10/19 00:21:15;;;;;;;;;;;12.50;99.90;;;;;;5021231;28;19917;-61
2022/10/19 00:23:41;;;;;;;;;;;12.60;99.90;;;;;;5013664;28;19917;-61
2022/10/19 00:26:07;;;;;;;;;;;12.60;99.90;;;;;;5012521;28;19914;-61
2022/10/19 00:28:32;;;;;;;;;;;12.50;99.90;;;;;;5026663;28;20273;-60
2022/10/19 00:31:02;;;;;;;;;;;12.50;99.90;;;;;;5019488;28;20277;-61
2022/10/19 00:33:28;;;;;;;;;;;12.50;99.90;;;;;;5007935;28;19944;-61
2022/10/19 00:35:54;;;;;;;;;;;12.50;99.90;;;;;;5021416;28;20018;-61
2022/10/19 00:38:19;;;;;;;;;;;12.50;99.90;;;;;;5011419;28;19913;-61
2022/10/19 00:40:46;;;;;;;;;;;12.60;99.90;;;;;;5012252;28;20274;-61
2022/10/19 00:43:15;;;;;;;;;;;12.60;99.90;;;;;;5020537;28;20264;-61
2022/10/19 00:45:41;;;;;;;;;;;12.60;99.90;;;;;;5014309;28;19917;-61
2022/10/19 00:48:07;;;;;;;;;;;12.60;99.90;;;;;;5015766;28;19964;-61
2022/10/19 00:50:33;;;;;;;;;;;12.60;99.90;;;;;;5012194;28;20029;-61
2022/10/19 00:52:59;;;;;;;;;;;12.50;99.90;;;;;;5018083;28;19909;-61
2022/10/19 00:55:24;;;;;;;;;;;12.60;99.90;;;;;;5022663;28;19913;-60
2022/10/19 00:57:50;;;;;;;;;;;12.60;99.90;;;;;;5027400;28;19945;-61
2022/10/19 01:00:16;;;;;;;;;;;12.50;99.90;;;;;;5018710;28;19968;-60
2022/10/19 01:02:42;;;;;;;;;;;12.40;99.90;;;;;;5013669;28;19963;-61
2022/10/19 01:05:08;;;;;;;;;;;12.40;99.90;;;;;;5015594;28;19909;-61
2022/10/19 01:07:33;;;;;;;;;;;12.40;99.90;;;;;;5014643;28;19916;-61
2022/10/19 01:09:59;;;;;;;;;;;12.40;99.90;;;;;;5012526;28;19917;-61
2022/10/19 01:12:44;;;;;;;;;;;12.40;99.90;;;;;;5011823;28;20373;-61
2022/10/19 01:15:09;;;;;;;;;;;12.40;99.90;;;;;;5008330;28;19910;-60
2022/10/19 01:17:44;;;;;;;;;;;12.40;99.90;;;;;;5020257;28;19917;-61
2022/10/19 01:20:21;;;;;;;;;;;12.40;99.90;;;;;;5006594;28;19971;-62
2022/10/19 01:22:53;;;;;;;;;;;12.30;99.90;;;;;;5013765;28;19913;-61
2022/10/19 01:25:23;;;;;;;;;;;12.30;99.90;;;;;;5004068;28;20508;-60
2022/10/19 01:27:56;;;;;;;;;;;12.20;99.90;;;;;;5012895;28;19980;-61
2022/10/19 01:30:22;;;;;;;;;;;12.20;99.90;;;;;;5015191;28;19916;-61
2022/10/19 01:32:53;;;;;;;;;;;12.20;99.90;;;;;;5014014;28;19910;-61
2022/10/19 01:35:23;;;;;;;;;;;12.20;99.90;;;;;;5023538;28;20361;-61
2022/10/19 01:37:53;;;;;;;;;;;12.20;99.90;;;;;;5024331;28;20384;-61
2022/10/19 01:40:25;;;;;;;;;;;12.10;99.90;;;;;;5018495;28;20332;-60
2022/10/19 01:43:22;;;;;;;;;;;12.10;99.90;;;;;;5023332;28;20358;-60
2022/10/19 01:46:00;;;;;;;;;;;12.10;99.90;;;;;;4991837;28;20012;-60
2022/10/19 01:48:27;;;;;;;;;;;11.90;99.90;;;;;;5020302;28;20062;-60
2022/10/19 01:51:00;;;;;;;;;;;11.90;99.90;;;;;;5023513;28;19909;-62
2022/10/19 01:53:27;;;;;;;;;;;11.80;99.90;;;;;;5009177;28;20316;-61
2022/10/19 01:55:54;;;;;;;;;;;11.80;99.90;;;;;;5025762;28;19998;-61
2022/10/19 01:58:25;;;;;;;;;;;11.80;99.90;;;;;;5023033;28;19917;-61
2022/10/19 02:00:51;;;;;;;;;;;11.90;99.90;;;;;;5017626;28;19925;-61
2022/10/19 02:03:17;;;;;;;;;;;11.90;99.90;;;;;;5016053;28;19945;-61
2022/10/19 02:05:43;;;;;;;;;;;11.90;99.90;;;;;;5015707;28;19953;-61
2022/10/19 02:08:10;;;;;;;;;;;11.80;99.90;;;;;;5016722;28;19909;-61
2022/10/19 02:10:37;;;;;;;;;;;11.90;99.90;;;;;;5012643;28;19956;-61
2022/10/19 02:13:03;;;;;;;;;;;11.90;99.90;;;;;;5024772;28;19909;-61
2022/10/19 02:15:30;;;;;;;;;;;11.90;99.90;;;;;;5021494;28;19913;-61
2022/10/19 02:17:58;;;;;;;;;;;11.80;99.90;;;;;;5029950;28;20377;-61
2022/10/19 02:20:25;;;;;;;;;;;11.90;99.90;;;;;;5023254;28;19952;-61
2022/10/19 02:22:51;;;;;;;;;;;11.90;99.90;;;;;;5018667;28;20004;-59
2022/10/19 02:25:17;;;;;;;;;;;11.90;99.90;;;;;;5018850;28;20028;-60
2022/10/19 02:27:42;;;;;;;;;;;11.90;99.90;;;;;;5016322;28;20353;-60
2022/10/19 02:30:09;;;;;;;;;;;11.80;99.90;;;;;;5020983;28;19956;-59
2022/10/19 02:32:35;;;;;;;;;;;11.80;99.90;;;;;;5022887;28;19910;-60
2022/10/19 02:35:00;;;;;;;;;;;11.80;99.90;;;;;;5010606;28;20065;-60
2022/10/19 02:37:26;;;;;;;;;;;11.70;99.90;;;;;;5010357;28;19916;-61
2022/10/19 02:39:52;;;;;;;;;;;11.70;99.90;;;;;;5009751;28;19924;-61
2022/10/19 02:42:21;;;;;;;;;;;11.70;99.90;;;;;;5019848;28;20346;-60
2022/10/19 02:44:49;;;;;;;;;;;11.60;99.90;;;;;;5013376;28;19917;-61
2022/10/19 02:47:17;;;;;;;;;;;11.60;99.90;;;;;;5008523;28;20273;-61
2022/10/19 02:49:43;;;;;;;;;;;11.60;99.90;;;;;;5020387;28;20384;-61
2022/10/19 02:52:10;;;;;;;;;;;11.70;99.90;;;;;;5017815;28;19956;-60
2022/10/19 02:54:36;;;;;;;;;;;11.70;99.90;;;;;;5009430;28;19910;-61
2022/10/19 02:57:03;;;;;;;;;;;11.70;99.90;;;;;;5019419;28;19916;-62
2022/10/19 02:59:29;;;;;;;;;;;11.80;99.90;;;;;;5018993;28;19909;-61
2022/10/19 03:01:54;;;;;;;;;;;11.80;99.90;;;;;;5018880;28;19917;-60
2022/10/19 03:04:20;;;;;;;;;;;11.70;99.90;;;;;;5017390;28;19924;-60
2022/10/19 03:06:45;;;;;;;;;;;11.70;99.90;;;;;;5011619;28;19916;-60
2022/10/19 03:09:11;;;;;;;;;;;11.70;99.90;;;;;;5011389;28;19909;-60
2022/10/19 03:11:36;;;;;;;;;;;11.70;99.90;;;;;;5014191;28;20384;-61
2022/10/19 03:14:02;;;;;;;;;;;11.70;99.90;;;;;;5012772;28;19909;-60
2022/10/19 03:16:27;;;;;;;;;;;11.60;99.90;;;;;;5011937;28;19916;-60
2022/10/19 03:18:53;;;;;;;;;;;11.60;99.90;;;;;;5018033;28;19909;-60
2022/10/19 03:21:19;;;;;;;;;;;11.70;99.90;;;;;;5010251;28;20289;-60
2022/10/19 03:23:44;;;;;;;;;;;11.70;99.90;;;;;;5019613;28;19916;-60
2022/10/19 03:26:14;;;;;;;;;;;11.80;99.90;;;;;;5014170;28;19948;-60
2022/10/19 03:28:40;;;;;;;;;;;11.80;99.90;;;;;;5011759;28;19909;-60
2022/10/19 03:31:05;;;;;;;;;;;11.80;99.90;;;;;;5008506;28;19916;-60
2022/10/19 03:33:31;;;;;;;;;;;11.80;99.90;;;;;;5013821;28;19910;-60
2022/10/19 03:36:16;;;;;;;;;;;11.80;99.90;;;;;;5015539;28;20004;-62
2022/10/19 03:38:42;;;;;;;;;;;11.80;99.90;;;;;;5018896;28;19909;-60
2022/10/19 03:41:12;;;;;;;;;;;11.90;99.90;;;;;;5010044;28;19922;-60
2022/10/19 03:43:40;;;;;;;;;;;11.90;99.90;;;;;;5012838;28;19968;-60
2022/10/19 03:46:06;;;;;;;;;;;11.90;99.90;;;;;;5008521;28;19921;-62
2022/10/19 03:48:32;;;;;;;;;;;11.80;99.90;;;;;;5022684;28;20408;-61
2022/10/19 03:50:59;;;;;;;;;;;11.80;99.90;;;;;;5015649;28;20005;-61
2022/10/19 03:53:25;;;;;;;;;;;11.80;99.90;;;;;;5025994;28;20357;-61
2022/10/19 03:55:50;;;;;;;;;;;11.80;99.90;;;;;;5016292;28;19909;-61
2022/10/19 03:58:16;;;;;;;;;;;11.80;99.90;;;;;;5016584;28;19913;-61
2022/10/19 04:00:41;;;;;;;;;;;11.90;99.90;;;;;;5020547;28;19923;-61
2022/10/19 04:03:07;;;;;;;;;;;11.90;99.90;;;;;;5010329;28;19959;-61
2022/10/19 04:05:32;;;;;;;;;;;12.00;99.90;;;;;;5011595;28;19913;-61
2022/10/19 04:07:58;;;;;;;;;;;12.00;99.90;;;;;;5022700;28;19951;-61
2022/10/19 04:10:23;;;;;;;;;;;12.00;99.90;;;;;;5020885;28;19916;-61
2022/10/19 04:12:49;;;;;;;;;;;12.00;99.90;;;;;;5022848;28;19916;-61
2022/10/19 04:15:14;;;;;;;;;;;12.10;99.90;;;;;;5016940;28;19910;-61
2022/10/19 04:17:40;;;;;;;;;;;12.10;99.90;;;;;;5010524;28;19909;-61
2022/10/19 04:20:06;;;;;;;;;;;12.20;99.90;;;;;;5009423;28;19909;-62
2022/10/19 04:22:31;;;;;;;;;;;12.20;99.90;;;;;;5009118;28;19910;-61
2022/10/19 04:24:57;;;;;;;;;;;12.20;99.90;;;;;;5016591;28;19916;-61
2022/10/19 04:27:22;;;;;;;;;;;12.30;99.90;;;;;;5010091;28;19918;-60
2022/10/19 04:29:48;;;;;;;;;;;12.30;99.90;;;;;;5019077;28;19932;-61
2022/10/19 04:32:13;;;;;;;;;;;12.30;99.90;;;;;;5015697;28;19935;-61
2022/10/19 04:34:39;;;;;;;;;;;12.20;99.90;;;;;;5009983;28;20352;-61
2022/10/19 04:37:04;;;;;;;;;;;12.20;99.90;;;;;;5012834;28;20395;-61
2022/10/19 04:39:30;;;;;;;;;;;12.10;99.90;;;;;;5012113;28;20284;-61
2022/10/19 04:41:55;;;;;;;;;;;12.10;99.90;;;;;;5008077;28;19917;-61
2022/10/19 04:44:21;;;;;;;;;;;12.20;99.90;;;;;;5011350;28;20004;-61
2022/10/19 04:46:46;;;;;;;;;;;12.20;99.90;;;;;;5014272;28;20349;-61
2022/10/19 04:49:12;;;;;;;;;;;12.20;99.90;;;;;;5019542;28;19961;-61
2022/10/19 04:51:37;;;;;;;;;;;12.20;99.90;;;;;;5013874;28;19917;-61
2022/10/19 04:54:03;;;;;;;;;;;12.20;99.90;;;;;;5018112;28;19910;-61
2022/10/19 04:56:31;;;;;;;;;;;12.10;99.90;;;;;;5012135;28;19924;-61
2022/10/19 04:58:57;;;;;;;;;;;12.10;99.90;;;;;;5018449;28;19920;-60
2022/10/19 05:01:23;;;;;;;;;;;12.10;99.90;;;;;;5003963;28;19928;-61
2022/10/19 05:03:52;;;;;;;;;;;12.00;99.90;;;;;;5013521;28;19924;-61
2022/10/19 05:06:18;;;;;;;;;;;12.00;99.90;;;;;;5019811;28;19913;-60
2022/10/19 05:08:43;;;;;;;;;;;12.00;99.90;;;;;;5014692;28;19917;-61
2022/10/19 05:11:11;;;;;;;;;;;11.90;99.90;;;;;;5014522;28;20277;-61
2022/10/19 05:13:37;;;;;;;;;;;11.90;99.90;;;;;;5020106;28;19963;-60
2022/10/19 05:16:03;;;;;;;;;;;11.90;99.90;;;;;;5020111;28;19909;-61
2022/10/19 05:18:29;;;;;;;;;;;11.90;99.90;;;;;;5012559;28;19909;-61
2022/10/19 05:21:01;;;;;;;;;;;12.00;99.90;;;;;;5011342;28;19917;-60
2022/10/19 05:23:27;;;;;;;;;;;11.80;99.90;;;;;;5003665;28;19909;-61
2022/10/19 05:26:00;;;;;;;;;;;11.90;99.90;;;;;;5025816;28;20417;-60
2022/10/19 05:28:25;;;;;;;;;;;11.90;99.90;;;;;;5014342;28;20320;-61
2022/10/19 05:30:51;;;;;;;;;;;11.90;99.90;;;;;;5016905;28;19917;-61
2022/10/19 05:33:16;;;;;;;;;;;11.90;99.90;;;;;;5014909;28;20328;-61
2022/10/19 05:35:42;;;;;;;;;;;12.10;99.90;;;;;;5015674;28;20335;-61
2022/10/19 05:38:07;;;;;;;;;;;12.10;99.90;;;;;;5011002;28;19913;-61
2022/10/19 05:40:33;;;;;;;;;;;12.10;99.90;;;;;;5011983;28;20412;-61
2022/10/19 05:42:58;;;;;;;;;;;12.00;99.90;;;;;;5015803;28;20326;-61
2022/10/19 05:45:24;;;;;;;;;;;12.20;99.90;;;;;;5007725;28;20411;-62
2022/10/19 05:47:49;;;;;;;;;;;12.10;99.90;;;;;;5012438;28;20376;-61
2022/10/19 05:50:15;;;;;;;;;;;12.10;99.90;;;;;;5012059;28;19909;-60
2022/10/19 05:52:40;;;;;;;;;;;12.20;99.90;;;;;;5014491;28;19909;-60
2022/10/19 05:55:06;;;;;;;;;;;12.10;99.90;;;;;;5011187;28;19909;-62
2022/10/19 05:57:32;;;;;;;;;;;12.10;99.90;;;;;;5018295;28;19909;-61
2022/10/19 05:59:57;;;;;;;;;;;12.10;99.90;;;;;;5022180;28;19913;-60
2022/10/19 06:02:23;;;;;;;;;;;12.10;99.90;;;;;;5007696;28;19925;-61
2022/10/19 06:04:49;;;;;;;;;;;12.10;99.90;;;;;;5013384;28;19909;-62
2022/10/19 06:07:14;;;;;;;;;;;12.20;99.90;;;;;;5017478;28;20400;-62
2022/10/19 06:09:40;;;;;;;;;;;12.20;99.90;;;;;;5013180;28;20317;-60
2022/10/19 06:12:05;;;;;;;;;;;12.20;99.90;;;;;;5015766;28;19917;-60
2022/10/19 06:14:31;;;;;;;;;;;12.20;99.90;;;;;;5014523;28;20365;-61
2022/10/19 06:16:56;;;;;;;;;;;12.20;99.90;;;;;;5019439;28;20308;-61
2022/10/19 06:19:22;;;;;;;;;;;12.20;99.90;;;;;;5009507;28;19992;-61
2022/10/19 06:21:47;;;;;;;;;;;12.20;99.90;;;;;;5012306;28;19921;-62
2022/10/19 06:24:13;;;;;;;;;;;12.20;99.90;;;;;;5013835;28;20099;-60
2022/10/19 06:26:38;;;;;;;;;;;12.30;99.90;;;;;;5010409;28;19972;-62
2022/10/19 06:29:04;;;;;;;;;;;12.30;99.90;;;;;;5023293;28;20280;-61
2022/10/19 06:31:31;;;;;;;;;;;12.40;99.90;;;;;;5011195;28;20376;-61
2022/10/19 06:33:57;;;;;;;;;;;12.40;99.90;;;;;;5018949;28;19916;-62
2022/10/19 06:36:24;;;;;;;;;;;12.40;99.90;;;;;;5007930;28;19909;-60
2022/10/19 06:38:50;;;;;;;;;;;12.30;99.90;;;;;;5018813;28;19910;-60
2022/10/19 06:41:18;;;;;;;;;;;12.40;99.90;;;;;;5016106;28;19925;-60
2022/10/19 06:43:51;;;;;;;;;;;12.40;99.90;;;;;;5003535;28;19913;-61
2022/10/19 06:46:19;;;;;;;;;;;12.40;99.90;;;;;;5008430;28;19917;-61
2022/10/19 06:48:52;;;;;;;;;;;12.40;99.90;;;;;;5014046;28;20388;-62
2022/10/19 06:51:17;;;;;;;;;;;12.40;99.90;;;;;;5017258;28;20395;-62
2022/10/19 06:53:43;;;;;;;;;;;12.50;99.90;;;;;;5014652;28;20004;-60
2022/10/19 06:56:09;;;;;;;;;;;12.50;99.90;;;;;;5007663;28;19916;-61
2022/10/19 06:58:35;;;;;;;;;;;12.60;99.90;;;;;;5005224;28;19928;-61
2022/10/19 07:01:01;;;;;;;;;;;12.60;99.90;;;;;;5005130;28;20006;-62
2022/10/19 07:03:27;;;;;;;;;;;12.60;99.90;;;;;;4999135;28;19909;-61
2022/10/19 07:05:53;;;;;;;;;;;12.70;99.90;;;;;;5006468;28;19917;-61
2022/10/19 07:08:19;;;;;;;;;;;12.70;99.90;;;;;;5003300;28;19963;-62
2022/10/19 07:10:48;;;;;;;;;;;12.70;99.90;;;;;;5010743;28;20274;-61
2022/10/19 07:13:14;;;;;;;;;;;12.70;99.90;;;;;;5000991;28;19967;-62
2022/10/19 07:15:39;;;;;;;;;;;12.80;99.90;;;;;;5008720;28;19960;-62
2022/10/19 07:18:05;;;;;;;;;;;12.80;99.90;;;;;;5007228;28;19913;-62
2022/10/19 07:20:30;;;;;;;;;;;12.80;99.90;;;;;;5001057;28;19928;-61
2022/10/19 07:22:56;;;;;;;;;;;12.80;99.90;;;;;;4999363;28;19916;-61
2022/10/19 07:25:21;;;;;;;;;;;12.90;99.90;;;;;;5005889;28;19917;-61
2022/10/19 07:27:47;;;;;;;;;;;12.90;99.90;;;;;;5007023;28;19956;-61
2022/10/19 07:30:12;;;;;;;;;;;13.00;99.90;;;;;;5000259;28;20055;-61
2022/10/19 07:32:38;;;;;;;;;;;13.00;99.90;;;;;;5006383;28;20048;-61
2022/10/19 07:35:03;;;;;;;;;;;13.10;99.90;;;;;;5002733;28;19910;-61
2022/10/19 07:37:29;;;;;;;;;;;13.20;99.90;;;;;;5000770;28;19917;-61
2022/10/19 07:39:54;;;;;;;;;;;13.20;99.90;;;;;;5009279;28;20023;-61
2022/10/19 07:42:20;;;;;;;;;;;13.30;99.90;;;;;;5006229;28;20742;-61
2022/10/19 07:44:48;;;;;;;;;;;13.30;99.90;;;;;;5006100;28;20394;-60
2022/10/19 07:47:14;;;;;;;;;;;13.40;99.90;;;;;;5009336;28;19916;-61
2022/10/19 07:49:40;;;;;;;;;;;13.50;99.90;;;;;;4997384;28;20003;-61
2022/10/19 07:52:06;;;;;;;;;;;13.50;99.90;;;;;;5007433;28;20345;-61
2022/10/19 07:54:31;;;;;;;;;;;13.60;99.90;;;;;;5013351;28;19916;-60
2022/10/19 07:56:57;;;;;;;;;;;13.70;99.90;;;;;;5009278;28;20277;-61
2022/10/19 07:59:22;;;;;;;;;;;13.70;99.90;;;;;;5012359;28;20302;-61
2022/10/19 08:01:49;;;;;;;;;;;13.70;99.90;;;;;;5006058;28;20016;-60
2022/10/19 08:04:15;;;;;;;;;;;13.80;99.90;;;;;;5001351;28;20023;-61
2022/10/19 08:06:41;;;;;;;;;;;13.80;99.90;;;;;;5004087;28;19917;-61
2022/10/19 08:09:06;;;;;;;;;;;13.80;99.90;;;;;;5005941;28;19916;-62
2022/10/19 08:11:33;;;;;;;;;;;13.90;99.90;;;;;;5002031;28;19916;-61
2022/10/19 08:13:59;;;;;;;;;;;14.10;99.90;;;;;;5006269;28;20044;-61
2022/10/19 08:16:26;;;;;;;;;;;14.10;99.90;;;;;;5003678;28;19968;-61
2022/10/19 08:18:54;;;;;;;;;;;14.20;99.90;;;;;;5009150;28;20000;-60
2022/10/19 08:21:20;;;;;;;;;;;14.40;99.90;;;;;;5007002;28;19939;-60
2022/10/19 08:23:45;;;;;;;;;;;14.30;99.90;;;;;;5002292;28;20362;-60
2022/10/19 08:26:11;;;;;;;;;;;14.40;99.90;;;;;;5006180;28;19909;-61
2022/10/19 08:28:36;;;;;;;;;;;14.50;99.90;;;;;;5005749;28;20079;-60
2022/10/19 08:31:12;;;;;;;;;;;14.60;99.90;;;;;;5002444;28;19909;-60
2022/10/19 08:33:38;;;;;;;;;;;14.70;99.90;;;;;;5009447;28;19962;-61
2022/10/19 08:36:05;;;;;;;;;;;14.70;99.90;;;;;;5001770;28;20358;-61
2022/10/19 08:38:30;;;;;;;;;;;14.90;99.90;;;;;;5013662;28;20356;-60
2022/10/19 08:40:57;;;;;;;;;;;14.90;99.90;;;;;;5008544;28;19917;-62
2022/10/19 08:43:32;;;;;;;;;;;14.90;99.90;;;;;;5010002;28;20372;-61
2022/10/19 08:46:04;;;;;;;;;;;15.00;99.90;;;;;;5002988;28;19997;-61
2022/10/19 08:48:32;;;;;;;;;;;15.00;99.90;;;;;;5003224;28;19913;-61
2022/10/19 08:50:58;;;;;;;;;;;15.10;99.90;;;;;;5012548;28;20265;-61
2022/10/19 08:53:44;;;;;;;;;;;15.10;99.90;;;;;;4997759;28;19910;-61
2022/10/19 08:56:24;;;;;;;;;;;15.20;99.90;;;;;;5005685;28;19995;-61
2022/10/19 08:59:01;;;;;;;;;;;15.20;99.90;;;;;;5004299;28;19909;-61
2022/10/19 09:01:39;;;;;;;;;;;15.20;99.90;;;;;;5000608;28;20022;-60
2022/10/19 09:04:08;;;;;;;;;;;15.20;99.90;;;;;;5018201;28;19910;-61
2022/10/19 09:06:40;;;;;;;;;;;15.30;99.90;;;;;;5005857;28;19909;-60
2022/10/19 09:09:11;;;;;;;;;;;15.40;99.90;;;;;;5016053;28;20479;-61
2022/10/19 09:11:37;;;;;;;;;;;15.40;99.90;;;;;;5009017;28;19913;-60
2022/10/19 09:14:18;;;;;;;;;;;15.50;99.90;;;;;;5004133;28;20362;-59
2022/10/19 09:16:45;;;;;;;;;;;15.60;99.90;;;;;;5006926;28;19932;-60
2022/10/19 09:19:24;;;;;;;;;;;15.70;99.90;;;;;;5006870;28;19996;-60
2022/10/19 09:21:52;;;;;;;;;;;15.80;99.90;;;;;;4996487;28;19925;-61
2022/10/19 09:24:40;;;;;;;;;;;15.90;99.90;;;;;;5006830;28;20266;-60
2022/10/19 09:27:09;;;;;;;;;;;16.10;99.90;;;;;;5005103;28;19955;-60
2022/10/19 09:29:44;;;;;;;;;;;16.20;99.90;;;;;;5007480;28;19913;-61
2022/10/19 09:32:30;;;;;;;;;;;16.30;99.90;;;;;;4996740;28;20002;-61
2022/10/19 09:34:59;;;;;;;;;;;16.40;99.90;;;;;;5005320;28;19925;-60
2022/10/19 09:37:25;;;;;;;;;;;16.40;99.90;;;;;;5003805;28;19995;-60
2022/10/19 09:39:51;;;;;;;;;;;16.50;99.90;;;;;;5006312;28;19992;-60
2022/10/19 09:42:20;;;;;;;;;;;16.50;99.90;;;;;;5007714;28;19960;-59
2022/10/19 09:44:45;;;;;;;;;;;16.60;99.90;;;;;;5005160;28;19973;-60
2022/10/19 09:47:30;;;;;;;;;;;16.70;99.90;;;;;;5001297;28;19948;-61
2022/10/19 09:50:05;;;;;;;;;;;16.70;99.90;;;;;;5007690;28;19917;-61
2022/10/19 09:52:35;;;;;;;;;;;16.80;99.90;;;;;;5007395;28;19913;-60
2022/10/19 09:55:04;;;;;;;;;;;16.90;99.90;;;;;;5008681;28;19956;-61
2022/10/19 09:57:29;;;;;;;;;;;17.10;99.90;;;;;;5005168;28;19917;-59
2022/10/19 09:59:55;;;;;;;;;;;17.20;99.90;;;;;;5003045;28;20297;-60
2022/10/19 10:02:27;;;;;;;;;;;17.40;99.90;;;;;;5006231;28;20001;-62
2022/10/19 10:05:01;;;;;;;;;;;17.50;99.90;;;;;;5008610;28;19998;-60
2022/10/19 10:07:31;;;;;;;;;;;17.60;99.90;;;;;;5006997;28;19913;-59
2022/10/19 10:09:58;;;;;;;;;;;17.60;99.90;;;;;;5005279;28;19971;-60
2022/10/19 10:12:23;;;;;;;;;;;17.70;99.90;;;;;;5001638;28;19980;-60
2022/10/19 10:14:50;;;;;;;;;;;17.80;99.90;;;;;;5002612;28;20348;-60
2022/10/19 10:17:17;;;;;;;;;;;17.90;99.90;;;;;;5003161;28;19910;-60
2022/10/19 10:19:58;;;;;;;;;;;17.90;99.90;;;;;;5007969;28;19909;-61
2022/10/19 10:22:27;;;;;;;;;;;17.90;99.90;;;;;;5008331;28;19917;-60
2022/10/19 10:24:53;;;;;;;;;;;17.90;99.90;;;;;;5008844;28;19909;-60
2022/10/19 10:27:45;;;;;;;;;;;18.00;99.90;;;;;;5001498;28;19983;-60
2022/10/19 10:30:15;;;;;;;;;;;17.90;99.90;;;;;;5009357;28;19913;-60
2022/10/19 10:32:44;;;;;;;;;;;17.60;99.90;;;;;;5008018;28;19913;-61
2022/10/19 10:35:17;;;;;;;;;;;17.60;99.90;;;;;;5004682;28;19932;-61
2022/10/19 10:37:44;;;;;;;;;;;17.50;99.90;;;;;;5007575;28;19918;-59
2022/10/19 10:40:25;;;;;;;;;;;17.60;99.90;;;;;;5004757;28;19913;-62
2022/10/19 10:42:52;;;;;;;;;;;17.70;99.90;;;;;;5006529;28;20316;-61
2022/10/19 10:45:38;;;;;;;;;;;17.80;99.90;;;;;;4997579;28;20025;-59
2022/10/19 10:48:25;;;;;;;;;;;17.90;99.90;;;;;;5002227;28;19914;-60
2022/10/19 10:50:51;;;;;;;;;;;18.20;99.90;;;;;;5004105;28;20007;-60
2022/10/19 10:53:37;;;;;;;;;;;18.20;99.90;;;;;;4999205;28;19991;-61
2022/10/19 10:56:04;;;;;;;;;;;18.40;99.90;;;;;;5007590;28;19910;-60
2022/10/19 10:58:34;;;;;;;;;;;18.50;99.90;;;;;;5010445;28;20319;-60
2022/10/19 11:01:03;;;;;;;;;;;18.80;99.90;;;;;;4998020;28;20004;-60
2022/10/19 11:03:29;;;;;;;;;;;19.10;99.90;;;;;;5008271;28;19909;-59
2022/10/19 11:05:56;;;;;;;;;;;19.50;99.90;;;;;;5003864;28;19916;-60
2022/10/19 11:08:37;;;;;;;;;;;19.20;99.90;;;;;;5005394;28;20304;-61
2022/10/19 11:11:13;;;;;;;;;;;19.40;99.90;;;;;;5007679;28;19929;-60
2022/10/19 11:13:57;;;;;;;;;;;19.70;99.90;;;;;;5005705;28;20020;-60
2022/10/19 11:16:34;;;;;;;;;;;19.90;99.90;;;;;;4999147;28;19914;-59
2022/10/19 11:19:06;;;;;;;;;;;19.70;99.90;;;;;;5005580;28;19913;-60
2022/10/19 11:21:38;;;;;;;;;;;19.80;99.90;;;;;;5001786;28;19942;-61
2022/10/19 11:24:11;;;;;;;;;;;20.10;99.90;;;;;;4996015;28;19910;-61
2022/10/19 11:26:39;;;;;;;;;;;20.40;99.90;;;;;;5006255;28;20285;-59
2022/10/19 11:29:11;;;;;;;;;;;20.70;99.90;;;;;;4993168;28;19909;-59
2022/10/19 11:31:36;;;;;;;;;;;20.70;99.90;;;;;;5005016;28;19917;-60
2022/10/19 11:34:29;;;;;;;;;;;20.70;99.90;;;;;;5008820;28;19909;-59
2022/10/19 11:37:13;;;;;;;;;;;20.20;99.90;;;;;;5007531;28;19917;-60
2022/10/19 11:39:44;;;;;;;;;;;19.90;99.90;;;;;;5005136;28;19920;-59
2022/10/19 11:42:21;;;;;;;;;;;19.50;99.90;;;;;;5007531;28;19925;-59
2022/10/19 11:44:53;;;;;;;;;;;19.60;99.90;;;;;;5004199;28;19928;-60
2022/10/19 11:47:30;;;;;;;;;;;19.70;99.90;;;;;;5006544;28;20361;-60
2022/10/19 11:49:58;;;;;;;;;;;19.90;99.90;;;;;;5004238;28;20369;-61
2022/10/19 11:52:36;;;;;;;;;;;20.60;99.90;;;;;;5003118;28;19914;-60
2022/10/19 11:55:20;;;;;;;;;;;21.00;99.90;;;;;;5008035;28;19909;-60
2022/10/19 11:57:45;;;;;;;;;;;21.10;99.90;;;;;;5006941;28;19909;-61
2022/10/19 12:00:13;;;;;;;;;;;21.50;99.90;;;;;;5010907;28;19910;-60
2022/10/19 12:02:39;;;;;;;;;;;21.90;99.90;;;;;;5013959;28;19928;-60
2022/10/19 12:05:09;;;;;;;;;;;22.60;99.90;;;;;;5005670;28;19909;-60
2022/10/19 12:07:54;;;;;;;;;;;22.60;99.90;;;;;;5013183;28;20008;-61
2022/10/19 12:10:26;;;;;;;;;;;22.70;99.90;;;;;;5007847;28;19914;-60
2022/10/19 12:12:54;;;;;;;;;;;22.90;99.90;;;;;;4998983;28;19917;-60
2022/10/19 12:15:22;;;;;;;;;;;23.30;99.90;;;;;;5004908;28;19913;-61
2022/10/19 12:17:50;;;;;;;;;;;23.60;99.90;;;;;;5012487;28;19909;-61
2022/10/19 12:20:19;;;;;;;;;;;23.80;99.90;;;;;;5006297;28;19916;-61
2022/10/19 12:22:44;;;;;;;;;;;23.90;99.90;;;;;;5008245;28;19913;-60
2022/10/19 12:25:12;;;;;;;;;;;23.40;99.90;;;;;;5009776;28;19910;-60
2022/10/19 12:27:39;;;;;;;;;;;22.60;99.90;;;;;;4996288;28;19949;-60
2022/10/19 12:30:05;;;;;;;;;;;22.30;99.90;;;;;;5005249;28;19956;-60
2022/10/19 12:32:34;;;;;;;;;;;22.00;99.90;;;;;;5007431;28;19913;-61
2022/10/19 12:35:07;;;;;;;;;;;21.90;99.90;;;;;;5007762;28;20365;-61
2022/10/19 12:37:38;;;;;;;;;;;22.00;99.90;;;;;;5006787;28;19909;-61
2022/10/19 12:40:11;;;;;;;;;;;22.40;99.90;;;;;;5004992;28;19935;-59
2022/10/19 12:42:57;;;;;;;;;;;22.70;99.90;;;;;;5004408;28;19918;-60
2022/10/19 12:45:23;;;;;;;;;;;23.20;99.90;;;;;;5006586;28;20378;-60
2022/10/19 12:48:09;;;;;;;;;;;23.60;99.90;;;;;;5006102;28;19961;-61
2022/10/19 12:50:47;;;;;;;;;;;24.10;99.90;;;;;;5003948;28;19909;-61
2022/10/19 12:53:23;;;;;;;;;;;24.20;99.90;;;;;;5008119;28;20281;-61
2022/10/19 12:56:07;;;;;;;;;;;24.20;99.90;;;;;;5007487;28;19940;-61
2022/10/19 12:58:44;;;;;;;;;;;24.50;99.90;;;;;;5010466;28;19999;-59
2022/10/19 13:01:19;;;;;;;;;;;24.50;99.90;;;;;;5006383;28;20366;-61
2022/10/19 13:03:46;;;;;;;;;;;24.80;99.90;;;;;;5002203;28;19909;-61
2022/10/19 13:06:14;;;;;;;;;;;24.40;99.90;;;;;;5003842;28;19932;-61
2022/10/19 13:09:00;;;;;;;;;;;24.20;99.90;;;;;;5009797;28;19996;-60
2022/10/19 13:11:26;;;;;;;;;;;24.40;99.90;;;;;;5005536;28;19921;-59
2022/10/19 13:13:56;;;;;;;;;;;24.80;99.90;;;;;;5005165;28;19910;-60
2022/10/19 13:16:27;;;;;;;;;;;24.70;99.90;;;;;;5006185;28;19925;-60
2022/10/19 13:18:59;;;;;;;;;;;25.30;99.90;;;;;;5009850;28;19917;-60
2022/10/19 13:21:43;;;;;;;;;;;25.10;99.90;;;;;;4999107;28;19918;-60
2022/10/19 13:24:23;;;;;;;;;;;25.30;99.90;;;;;;4999162;28;19956;-61
2022/10/19 13:27:01;;;;;;;;;;;24.70;99.90;;;;;;5001891;28;20020;-60
2022/10/19 13:29:37;;;;;;;;;;;24.10;99.90;;;;;;5000659;28;19917;-61
2022/10/19 13:32:21;;;;;;;;;;;23.80;99.90;;;;;;5008491;28;19910;-62
2022/10/19 13:34:47;;;;;;;;;;;23.90;99.90;;;;;;4998860;28;19975;-62
2022/10/19 13:37:15;;;;;;;;;;;23.50;99.90;;;;;;5001867;28;19917;-60
2022/10/19 13:39:40;;;;;;;;;;;23.20;99.90;;;;;;5000055;28;20392;-60
2022/10/19 13:42:21;;;;;;;;;;;22.80;99.90;;;;;;5007130;28;19921;-61
2022/10/19 13:44:47;;;;;;;;;;;22.90;99.90;;;;;;5003144;28;19914;-60
2022/10/19 13:47:12;;;;;;;;;;;22.90;99.90;;;;;;5001625;28;19916;-60
2022/10/19 13:49:53;;;;;;;;;;;23.10;99.90;;;;;;5005363;28;19909;-61
2022/10/19 13:52:37;;;;;;;;;;;22.90;99.90;;;;;;5003028;28;20007;-62
2022/10/19 13:55:02;;;;;;;;;;;22.80;99.90;;;;;;5001835;28;19909;-61
2022/10/19 13:57:28;;;;;;;;;;;23.20;99.90;;;;;;5005628;28;20281;-60
2022/10/19 13:59:58;;;;;;;;;;;23.80;99.90;;;;;;5004678;28;19952;-61
2022/10/19 14:02:44;;;;;;;;;;;23.80;99.90;;;;;;5001590;28;19929;-60
2022/10/19 14:05:29;;;;;;;;;;;23.80;99.90;;;;;;5000505;28;20018;-60
2022/10/19 14:08:05;;;;;;;;;;;23.60;99.90;;;;;;5007220;28;19971;-60
2022/10/19 14:10:31;;;;;;;;;;;23.80;99.90;;;;;;5004502;28;20020;-59
2022/10/19 14:12:57;;;;;;;;;;;24.20;99.90;;;;;;5000483;28;19992;-61
2022/10/19 14:15:28;;;;;;;;;;;24.10;99.90;;;;;;5010295;28;19917;-60
2022/10/19 14:17:54;;;;;;;;;;;23.80;99.90;;;;;;5000682;28;20012;-61
2022/10/19 14:20:40;;;;;;;;;;;22.90;99.90;;;;;;5003196;28;19921;-59
2022/10/19 14:23:17;;;;;;;;;;;21.90;99.90;;;;;;4998271;28;19910;-60
2022/10/19 14:25:50;;;;;;;;;;;22.00;99.90;;;;;;5003722;28;19978;-59
2022/10/19 14:28:16;;;;;;;;;;;22.40;99.90;;;;;;4999638;28;20342;-60